Time;durP1;ratioP1;P1;durP2;ratioP2;P2;SDS_P1;SDS_P2;PMS_P1;PMS_P2;Temp;Humidity;BMP_temperature;BMP_pressure;BME280_temperature;BME280_humidity;BME280_pressure;Samples;Min_cycle;Max_cycle;Signal;HPM_P1;HPM_P2
2022/06/10 00:00:42;;;;;;;12.57;8.70;;;;;;;19.37;73.75;99295.62;7712707;32;39148;-77
2022/06/10 00:04:59;;;;;;;14.32;9.05;;;;;;;19.40;73.83;99295.75;7712619;32;40751;-77
2022/06/10 00:09:15;;;;;;;13.25;8.70;;;;;;;19.35;74.13;99292.41;7712649;32;38366;-76
2022/06/10 00:13:33;;;;;;;14.02;8.43;;;;;;;19.65;72.54;99293.03;7712423;32;37188;-76
2022/06/10 00:17:50;;;;;;;13.90;9.32;;;;;;;19.64;71.98;99288.62;7712924;32;38329;-77
2022/06/10 00:22:06;;;;;;;15.38;9.57;;;;;;;19.39;73.07;99298.88;7712293;32;40707;-77
2022/06/10 00:26:22;;;;;;;15.70;9.90;;;;;;;19.21;74.00;99299.03;7712545;32;37900;-77
2022/06/10 00:30:38;;;;;;;17.45;9.30;;;;;;;19.04;74.41;99308.34;7711793;32;37887;-77
2022/06/10 00:34:54;;;;;;;15.95;8.85;;;;;;;19.19;74.22;99295.03;7712341;32;39338;-78
2022/06/10 00:39:10;;;;;;;17.05;9.60;;;;;;;19.08;74.48;99294.66;7712290;32;40779;-78
2022/06/10 00:43:33;;;;;;;15.30;10.38;;;;;;;19.21;74.10;99301.00;7711608;32;39112;-77
2022/06/10 00:47:49;;;;;;;15.68;10.68;;;;;;;19.04;74.52;99304.75;7712213;32;37222;-77
2022/06/10 00:52:11;;;;;;;15.90;9.23;;;;;;;18.94;74.70;99290.22;7710473;32;39999;-76
2022/06/10 00:56:28;;;;;;;15.02;9.60;;;;;;;19.20;73.67;99291.13;7712317;32;40889;-77
2022/06/10 01:00:44;;;;;;;14.43;8.32;;;;;;;18.90;74.89;99314.16;7711822;32;37801;-79
2022/06/10 01:05:03;;;;;;;17.20;9.18;;;;;;;19.14;73.80;99321.72;7710916;32;37264;-74
2022/06/10 01:09:20;;;;;;;14.10;8.65;;;;;;;19.04;73.94;99324.91;7712096;32;39332;-79
2022/06/10 01:13:56;;;;;;;12.32;7.53;;;;;;;19.21;73.12;99318.38;7710414;32;40692;-78
2022/06/10 01:18:38;;;;;;;14.90;8.10;;;;;;;19.44;72.39;99321.56;7710776;32;38746;-76
2022/06/10 01:23:09;;;;;;;14.13;8.18;;;;;;;19.30;73.03;99329.38;7711763;32;37407;-77
2022/06/10 01:28:07;;;;;;;14.02;8.25;;;;;;;19.20;72.21;99335.34;7711548;32;39332;-75
2022/06/10 01:33:02;;;;;;;12.25;8.27;;;;;;;19.16;72.64;99334.38;7710103;32;39918;-77
2022/06/10 01:37:32;;;;;;;16.12;8.80;;;;;;;19.15;72.94;99350.16;7711377;32;38699;-78
2022/06/10 01:41:56;;;;;;;13.95;9.48;;;;;;;19.33;72.13;99365.41;7710864;32;37831;-78
2022/06/10 01:46:20;;;;;;;20.62;8.07;;;;;;;19.40;71.84;99373.12;7710415;32;39295;-78
2022/06/10 01:50:53;;;;;;;13.00;8.95;;;;;;;19.51;70.91;99384.59;7710178;32;39884;-77
2022/06/10 01:55:26;;;;;;;13.88;8.10;;;;;;;19.48;71.00;99386.06;7709789;32;38388;-77
2022/06/10 02:00:10;;;;;;;12.90;8.35;;;;;;;19.61;70.89;99378.63;7711532;32;37894;-76
2022/06/10 02:04:34;;;;;;;14.45;8.93;;;;;;;19.49;71.18;99384.13;7709291;32;40185;-77
2022/06/10 02:09:13;;;;;;;11.98;8.38;;;;;;;19.60;71.09;99392.78;7711274;32;39984;-77
2022/06/10 02:13:40;;;;;;;12.73;8.40;;;;;;;19.66;71.13;99395.00;7709997;32;38653;-76
2022/06/10 02:18:19;;;;;;;13.77;8.90;;;;;;;19.69;71.05;99396.25;7711511;32;37906;-77
2022/06/10 02:22:43;;;;;;;11.73;8.05;;;;;;;19.93;70.36;99414.09;7711039;32;40025;-77
2022/06/10 02:27:03;;;;;;;11.55;7.93;;;;;;;20.06;69.89;99418.47;7710038;32;40788;-77
2022/06/10 02:31:32;;;;;;;11.65;7.75;;;;;;;19.86;70.58;99412.66;7709624;32;38199;-77
2022/06/10 02:36:23;;;;;;;15.23;8.25;;;;;;;19.92;70.48;99415.22;7711153;32;37157;-77
2022/06/10 02:41:06;;;;;;;21.80;14.02;;;;;;;19.95;70.06;99415.34;7710854;32;39473;-77
2022/06/10 02:45:49;;;;;;;16.00;9.32;;;;;;;19.85;70.25;99411.06;7710639;32;40739;-77
2022/06/10 02:50:06;;;;;;;15.95;9.40;;;;;;;19.80;70.43;99416.00;7710240;32;38033;-78
2022/06/10 02:54:33;;;;;;;13.43;8.88;;;;;;;19.75;70.44;99427.28;7710511;32;37370;-77
2022/06/10 03:03:28;;;;;;;12.30;8.68;;;;;;;19.67;70.58;99421.47;7709441;32;40865;-77
2022/06/10 03:08:01;;;;;;;14.57;9.10;;;;;;;19.73;70.40;99438.69;7710399;32;39355;-77
2022/06/10 03:12:43;;;;;;;17.77;9.80;;;;;;;19.68;70.88;99450.75;7708483;32;36865;-78
2022/06/10 03:17:17;;;;;;;17.17;9.15;;;;;;;19.63;70.70;99455.69;7710395;32;39405;-77
2022/06/10 03:22:02;;;;;;;19.98;9.65;;;;;;;19.64;70.48;99454.53;7709735;32;40024;-76
2022/06/10 03:26:40;;;;;;;16.10;8.40;;;;;;;19.51;70.85;99448.97;7709938;32;37949;-77
2022/06/10 03:31:17;;;;;;;13.62;8.20;;;;;;;19.54;70.74;99460.50;7707196;32;37221;-77
2022/06/10 03:35:38;;;;;;;13.93;9.00;;;;;;;19.62;70.54;99446.56;7708245;32;39451;-77
2022/06/10 03:39:56;;;;;;;13.98;8.68;;;;;;;19.50;70.87;99458.41;7708293;32;40889;-76
2022/06/10 03:44:16;;;;;;;12.10;7.80;;;;;;;19.73;70.02;99460.81;7709334;32;37688;-77
2022/06/10 03:48:34;;;;;;;13.18;8.30;;;;;;;19.64;70.41;99462.84;7709379;32;37053;-78
2022/06/10 03:52:51;;;;;;;13.88;8.77;;;;;;;19.70;70.35;99459.50;7709140;32;40425;-77
2022/06/10 03:57:08;;;;;;;12.57;8.65;;;;;;;19.56;70.88;99483.06;7709189;32;40522;-77
2022/06/10 04:01:24;;;;;;;31.12;8.80;;;;;;;19.71;70.41;99479.66;7708818;32;38602;-74
2022/06/10 04:05:40;;;;;;;23.20;9.20;;;;;;;19.65;70.50;99472.75;7709135;32;37216;-77
2022/06/10 04:10:25;;;;;;;12.43;8.38;;;;;;;19.72;70.10;99478.53;7708522;32;39667;-78
2022/06/10 04:14:41;;;;;;;13.95;8.68;;;;;;;19.47;70.81;99478.44;7708614;32;39678;-77
2022/06/10 04:18:57;;;;;;;11.20;8.35;;;;;;;19.32;71.35;99485.41;7709179;32;38150;-76
2022/06/10 04:23:14;;;;;;;17.12;8.77;;;;;;;18.94;72.88;99493.81;7712418;32;37392;-76
2022/06/10 04:27:30;;;;;;;13.32;8.45;;;;;;;18.89;73.43;99507.81;7712629;32;40037;-77
2022/06/10 04:31:47;;;;;;;13.60;9.07;;;;;;;19.19;72.71;99505.00;7712326;32;39963;-77
2022/06/10 04:36:04;;;;;;;13.60;8.85;;;;;;;19.30;72.08;99500.72;7712337;32;37996;-79
2022/06/10 04:40:23;;;;;;;11.52;7.78;;;;;;;19.31;72.15;99516.13;7712124;32;37927;-77
2022/06/10 04:44:39;;;;;;;13.43;8.07;;;;;;;19.37;71.51;99523.09;7712289;32;39262;-77
2022/06/10 04:48:55;;;;;;;13.55;8.70;;;;;;;19.80;70.72;99521.94;7712382;32;40050;-77
2022/06/10 04:53:11;;;;;;;12.90;8.00;;;;;;;20.00;70.68;99527.75;7710866;32;37969;-77
2022/06/10 04:57:28;;;;;;;17.50;7.78;;;;;;;20.17;70.44;99546.13;7712264;32;37227;-80
2022/06/10 05:01:44;;;;;;;17.75;8.38;;;;;;;20.25;69.79;99550.75;7711857;32;39274;-80
2022/06/10 05:06:00;;;;;;;12.10;7.40;;;;;;;19.74;70.60;99553.69;7712098;32;39867;-78
2022/06/10 05:10:18;;;;;;;11.98;7.90;;;;;;;19.88;70.29;99551.44;7710772;32;38695;-78
2022/06/10 05:14:34;;;;;;;11.95;7.35;;;;;;;20.17;69.33;99551.66;7711318;32;37196;-78
2022/06/10 05:18:50;;;;;;;11.68;7.35;;;;;;;20.52;69.03;99548.50;7711395;32;40087;-77
2022/06/10 05:23:08;;;;;;;16.02;8.85;;;;;;;20.34;69.64;99556.22;7696377;32;39943;-78
2022/06/10 05:27:25;;;;;;;14.27;7.18;;;;;;;20.15;69.72;99557.53;7699885;32;37976;-78
2022/06/10 05:31:41;;;;;;;16.75;7.07;;;;;;;20.52;68.95;99565.09;7710684;32;37269;-80
2022/06/10 05:35:57;;;;;;;9.13;6.32;;;;;;;20.51;69.12;99561.53;7709267;32;38952;-81
2022/06/10 05:40:14;;;;;;;11.10;6.85;;;;;;;20.51;67.75;99577.34;7707609;32;39696;-83
2022/06/10 05:44:30;;;;;;;12.27;6.93;;;;;;;20.06;70.05;99578.97;7707722;32;38772;-84
2022/06/10 05:48:46;;;;;;;10.73;7.37;;;;;;;20.33;69.13;99580.28;7707508;32;37456;-81
2022/06/10 05:53:05;;;;;;;13.55;8.52;;;;;;;20.57;68.52;99585.06;7709548;32;39420;-79
2022/06/10 05:57:22;;;;;;;10.80;7.72;;;;;;;20.44;68.61;99578.72;7710481;32;40941;-79
2022/06/10 06:01:38;;;;;;;11.18;7.45;;;;;;;20.45;68.77;99577.56;7709211;32;37856;-77
2022/06/10 06:05:54;;;;;;;13.38;8.43;;;;;;;20.31;69.25;99593.66;7711041;32;37216;-78
2022/06/10 06:10:22;;;;;;;14.32;8.20;;;;;;;20.08;70.45;99596.81;7710538;32;40133;-77
2022/06/10 06:14:38;;;;;;;14.07;7.57;;;;;;;20.12;69.71;99599.72;7710772;32;40008;-78
2022/06/10 06:18:54;;;;;;;12.07;7.50;;;;;;;20.48;68.74;99598.22;7710382;32;38708;-77
2022/06/10 06:23:11;;;;;;;10.50;7.05;;;;;;;20.27;69.82;99603.81;7710630;32;37852;-77
2022/06/10 06:27:27;;;;;;;13.52;8.00;;;;;;;20.19;69.65;99608.28;7710204;32;39350;-77
2022/06/10 06:31:44;;;;;;;16.55;8.70;;;;;;;20.35;69.31;99610.41;7710536;32;41675;-76
2022/06/10 06:36:00;;;;;;;16.60;8.48;;;;;;;20.45;69.52;99619.09;7710708;32;37872;-79
2022/06/10 06:40:16;;;;;;;15.60;8.82;;;;;;;20.24;70.87;99623.88;7710469;32;37844;-79
2022/06/10 06:44:33;;;;;;;12.07;8.27;;;;;;;20.43;70.87;99623.34;7709607;32;40078;-78
2022/06/10 06:48:49;;;;;;;12.82;8.32;;;;;;;20.65;69.66;99618.59;7710357;32;40546;-77
2022/06/10 06:53:05;;;;;;;17.37;8.60;;;;;;;20.89;69.71;99628.91;7709731;32;37841;-78
2022/06/10 06:57:22;;;;;;;13.95;8.55;;;;;;;21.00;69.85;99624.50;7709967;32;36921;-79
2022/06/10 07:01:38;;;;;;;11.30;8.48;;;;;;;20.92;69.17;99630.94;7695759;32;39224;-78
2022/06/10 07:05:55;;;;;;;11.88;8.95;;;;;;;21.17;68.99;99637.31;7709591;32;40638;-75
2022/06/10 07:10:14;;;;;;;13.80;9.02;;;;;;;20.70;69.70;99638.56;7708784;32;37625;-78
2022/06/10 07:14:30;;;;;;;13.60;8.65;;;;;;;20.36;70.95;99645.25;7707622;32;37359;-78
2022/06/10 07:18:46;;;;;;;13.65;8.25;;;;;;;20.77;70.07;99632.47;7709574;32;40000;-79
2022/06/10 07:23:03;;;;;;;11.57;7.50;;;;;;;20.61;70.20;99633.09;7709062;32;40797;-78
2022/06/10 07:27:21;;;;;;;10.75;7.30;;;;;;;20.49;68.61;99638.59;7708675;32;38628;-79
2022/06/10 07:31:50;;;;;;;15.13;7.12;;;;;;;21.05;68.64;99634.56;7708697;32;37227;-78
2022/06/10 07:36:07;;;;;;;20.52;7.03;;;;;;;21.08;68.15;99642.19;7709347;32;39256;-79
2022/06/10 07:45:26;;;;;;;14.38;8.02;;;;;;;21.17;65.42;99656.72;7709581;32;38937;-78
2022/06/10 07:49:42;;;;;;;10.75;6.95;;;;;;;21.32;66.75;99650.50;7709490;32;37940;-78
2022/06/10 07:53:58;;;;;;;9.43;6.00;;;;;;;21.75;66.34;99649.06;7706664;32;39292;-80
2022/06/10 07:58:19;;;;;;;7.70;5.57;;;;;;;22.28;63.36;99649.03;7710815;32;39469;-75
2022/06/10 08:02:35;;;;;;;11.68;6.37;;;;;;;22.29;62.20;99649.84;7711359;32;37653;-79
2022/06/10 08:06:53;;;;;;;9.73;6.78;;;;;;;22.75;62.16;99644.72;7711620;32;36795;-79
2022/06/10 08:11:09;;;;;;;10.23;6.05;;;;;;;23.01;61.64;99651.72;7712096;32;39048;-79
2022/06/10 08:15:27;;;;;;;8.07;5.45;;;;;;;23.01;61.29;99646.16;7712128;32;39864;-79
2022/06/10 08:19:43;;;;;;;8.32;5.87;;;;;;;23.02;60.59;99661.66;7712442;32;38062;-79
2022/06/10 08:24:01;;;;;;;10.13;5.90;;;;;;;22.41;62.08;99655.31;7712740;32;36719;-78
2022/06/10 08:28:18;;;;;;;11.12;6.05;;;;;;;23.24;63.81;99644.34;7712697;32;40297;-78
2022/06/10 08:32:34;;;;;;;11.10;6.10;;;;;;;23.48;62.10;99647.28;7712097;32;40720;-79
2022/06/10 08:36:50;;;;;;;13.15;5.72;;;;;;;23.44;59.07;99659.16;7712398;32;38669;-80
2022/06/10 08:41:38;;;;;;;8.57;5.00;;;;;;;23.78;60.18;99655.91;7712317;32;37447;-79
2022/06/10 08:46:00;;;;;;;10.27;6.05;;;;;;;23.71;59.91;99656.56;7711319;32;39238;-81
2022/06/10 08:50:28;;;;;;;8.38;5.10;;;;;;;23.90;59.36;99652.22;7709565;32;40060;-81
2022/06/10 08:55:02;;;;;;;10.57;6.18;;;;;;;24.04;59.86;99651.72;7711488;32;38803;-78
2022/06/10 08:59:34;;;;;;;9.57;5.80;;;;;;;23.80;59.79;99659.13;7711966;32;37965;-79
2022/06/10 09:03:51;;;;;;;10.68;4.93;;;;;;;24.26;59.20;99664.88;7710438;32;39347;-78
2022/06/10 09:08:16;;;;;;;8.75;5.10;;;;;;;24.73;58.22;99655.47;7710616;32;39949;-75
2022/06/10 09:12:57;;;;;;;8.88;5.00;;;;;;;24.56;56.89;99667.09;7710939;32;37981;-74
2022/06/10 09:17:24;;;;;;;8.75;4.97;;;;;;;24.85;57.76;99667.59;7711778;32;37299;-81
2022/06/10 09:21:53;;;;;;;11.45;4.62;;;;;;;24.65;56.43;99664.09;7710784;32;39478;-80
2022/06/10 09:26:19;;;;;;;8.35;4.78;;;;;;;24.92;55.85;99656.56;7710818;32;39779;-79
2022/06/10 09:30:50;;;;;;;7.75;4.45;;;;;;;24.95;57.74;99653.03;7711567;32;38449;-74
2022/06/10 09:35:25;;;;;;;10.43;5.20;;;;;;;25.36;55.22;99658.13;7684956;32;37010;-76
2022/06/10 09:45:05;;;;;;;8.52;4.90;;;;;;;25.03;55.66;99660.34;7711583;32;40855;-74
2022/06/10 09:49:38;;;;;;;6.75;4.82;;;;;;;25.06;56.27;99667.16;7710619;32;37949;-83
2022/06/10 09:54:22;;;;;;;7.87;4.37;;;;;;;25.04;55.45;99664.78;7711760;32;37843;-72
2022/06/10 09:58:57;;;;;;;8.23;4.85;;;;;;;25.18;54.32;99660.59;7711602;32;39255;-73
2022/06/10 10:03:37;;;;;;;9.70;4.60;;;;;;;25.36;54.01;99658.13;7711591;32;39994;-74
2022/06/10 10:08:00;;;;;;;7.37;4.45;;;;;;;26.21;53.85;99657.69;7710908;32;37631;-73
2022/06/10 10:12:36;;;;;;;10.18;4.35;;;;;;;25.92;53.04;99657.31;7710592;32;37336;-76
2022/06/10 10:16:58;;;;;;;12.20;5.10;;;;;;;25.98;54.78;99650.25;7709258;32;39411;-76
2022/06/10 10:21:23;;;;;;;7.80;4.65;;;;;;;27.08;52.44;99640.63;7710809;32;40861;-76
2022/06/10 10:25:44;;;;;;;13.27;4.22;;;;;;;27.40;49.93;99647.66;7711001;32;38473;-76
2022/06/10 10:30:14;;;;;;;10.05;4.18;;;;;;;27.66;50.05;99658.63;7698029;32;37939;-76
2022/06/10 10:34:36;;;;;;;13.18;3.87;;;;;;;28.16;49.20;99643.28;7705232;32;40149;-76
2022/06/10 10:38:53;;;;;;;5.97;4.00;;;;;;;28.09;48.53;99650.47;7709160;32;40179;-76
2022/06/10 10:43:14;;;;;;;5.30;3.60;;;;;;;28.89;46.80;99647.84;7704975;32;38394;-78
2022/06/10 10:47:31;;;;;;;10.00;4.07;;;;;;;28.54;46.32;99647.38;7709704;32;37805;-76
2022/06/10 10:51:49;;;;;;;8.48;4.30;;;;;;;27.79;49.57;99652.72;7710621;32;39292;-76
2022/06/10 10:56:09;;;;;;;8.65;3.97;;;;;;;27.94;48.49;99642.37;7709581;32;40524;-75
2022/06/10 11:00:34;;;;;;;8.90;4.87;;;;;;;28.03;47.92;99645.66;7709491;32;37797;-74
2022/06/10 11:04:50;;;;;;;7.78;3.75;;;;;;;27.98;48.72;99638.41;7722216;32;36605;-78
2022/06/10 11:09:23;;;;;;;5.32;4.07;;;;;;;28.06;47.56;99631.66;7709007;32;39262;-80
2022/06/10 11:13:51;;;;;;;7.87;4.18;;;;;;;28.15;48.32;99636.06;7710300;32;40974;-82
2022/06/10 11:18:13;;;;;;;8.63;4.80;;;;;;;28.75;46.51;99635.44;7710305;32;39731;-73
2022/06/10 11:22:38;;;;;;;9.27;4.05;;;;;;;29.41;46.76;99631.44;7710248;32;37563;-73
2022/06/10 11:26:58;;;;;;;10.18;5.45;;;;;;;30.28;44.61;99618.66;7709792;32;39336;-73
2022/06/10 11:31:26;;;;;;;6.68;3.70;;;;;;;30.33;43.66;99626.69;7712070;32;39899;-72
2022/06/10 11:36:03;;;;;;;10.35;4.05;;;;;;;30.44;42.28;99617.41;7712635;32;37530;-75
2022/06/10 11:40:35;;;;;;;7.80;3.55;;;;;;;30.98;38.60;99617.84;7724001;32;38108;-73
2022/06/10 11:44:57;;;;;;;6.00;3.70;;;;;;;31.05;39.37;99617.78;7711873;32;39447;-75
2022/06/10 11:49:31;;;;;;;7.87;3.70;;;;;;;31.49;40.40;99611.72;7711859;32;39612;-75
2022/06/10 11:54:04;;;;;;;6.28;3.40;;;;;;;31.60;43.14;99610.41;7709184;32;38862;-75
2022/06/10 12:03:35;;;;;;;8.85;3.12;;;;;;;30.88;38.85;99599.00;7694846;32;40071;-77
2022/06/10 12:08:07;;;;;;;7.07;3.60;;;;;;;31.00;40.60;99592.91;7707608;32;40595;-78
2022/06/10 12:12:32;;;;;;;6.22;3.15;;;;;;;30.99;37.76;99596.13;7712353;32;38632;-75
2022/06/10 12:16:59;;;;;;;9.63;3.60;;;;;;;31.40;37.65;99589.69;7710138;32;37127;-75
2022/06/10 12:21:19;;;;;;;56.70;7.18;;;;;;;32.06;39.53;99587.72;7711287;32;39006;-75
2022/06/10 12:26:04;;;;;;;8.23;3.12;;;;;;;32.18;39.22;99579.50;7711605;32;40845;-75
2022/06/10 12:30:31;;;;;;;12.80;2.97;;;;;;;32.61;35.02;99583.72;7710868;32;37840;-75
2022/06/10 12:35:00;;;;;;;6.55;2.62;;;;;;;32.81;33.89;99575.34;7709957;32;37727;-76
2022/06/10 12:39:27;;;;;;;4.90;2.83;;;;;;;32.30;33.74;99578.12;7710091;32;39965;-76
2022/06/10 12:43:48;;;;;;;5.55;3.53;;;;;;;32.19;31.68;99586.75;7711278;32;40590;-75
2022/06/10 12:48:17;;;;;;;5.55;3.12;;;;;;;32.02;32.35;99573.66;7711453;32;37917;-75
2022/06/10 12:53:09;;;;;;;9.07;3.20;;;;;;;32.10;36.69;99572.38;7711095;32;37849;-75
2022/06/10 12:57:43;;;;;;;7.32;4.50;;;;;;;32.74;33.23;99570.59;7711266;32;39037;-76
2022/06/10 13:01:59;;;;;;;6.87;3.50;;;;;;;32.58;33.26;99564.78;7710833;32;40066;-74
2022/06/10 13:06:28;;;;;;;4.72;2.97;;;;;;;32.36;33.92;99567.16;7711115;32;38017;-75
2022/06/10 13:10:45;;;;;;;7.43;3.47;;;;;;;32.90;34.19;99566.31;7711519;32;37249;-75
2022/06/10 13:15:25;;;;;;;6.78;3.85;;;;;;;33.01;34.28;99571.75;7710643;32;38976;-75
2022/06/10 13:20:09;;;;;;;8.52;3.60;;;;;;;31.50;34.53;99565.47;7711611;32;40474;-75
2022/06/10 13:24:25;;;;;;;5.50;3.58;;;;;;;31.98;34.28;99570.88;7710705;32;37837;-75
2022/06/10 13:28:45;;;;;;;4.78;3.78;;;;;;;31.79;34.15;99568.75;7710388;32;37084;-77
2022/06/10 13:33:07;;;;;;;8.38;3.35;;;;;;;31.00;35.67;99573.19;7709611;32;40643;-77
2022/06/10 13:37:26;;;;;;;7.97;4.75;;;;;;;31.29;35.11;99553.19;7689923;32;40982;-77
2022/06/10 13:41:54;;;;;;;5.93;3.87;;;;;;;31.08;35.61;99555.03;7685054;32;37991;-77
2022/06/10 13:46:29;;;;;;;7.35;3.37;;;;;;;31.39;35.52;99559.91;7683168;32;37093;-76
2022/06/10 13:51:27;;;;;;;9.48;4.28;;;;;;;31.83;34.92;99556.19;7684216;32;39827;-75
2022/06/10 13:55:51;;;;;;;10.38;4.78;;;;;;;31.49;36.02;99552.56;7684618;32;39642;-76
2022/06/10 14:00:17;;;;;;;7.68;5.07;;;;;;;31.15;36.59;99550.53;7683096;32;39182;-76
2022/06/10 14:04:34;;;;;;;9.02;3.62;;;;;;;31.78;36.23;99548.19;7684931;32;37587;-77
2022/06/10 14:08:56;;;;;;;7.40;3.65;;;;;;;31.15;35.30;99548.53;7684109;32;39324;-75
2022/06/10 14:13:22;;;;;;;6.00;3.47;;;;;;;31.20;37.29;99545.25;7684773;32;40053;-76
2022/06/10 14:17:39;;;;;;;6.40;4.20;;;;;;;31.10;35.51;99537.72;7684266;32;38726;-75
2022/06/10 14:21:55;;;;;;;7.45;3.62;;;;;;;31.24;38.60;99545.22;7684009;32;37165;-75
2022/06/10 14:26:11;;;;;;;5.62;3.30;;;;;;;31.32;36.26;99546.75;7684419;32;39308;-77
2022/06/10 14:30:39;;;;;;;10.20;3.50;;;;;;;31.63;36.00;99550.41;7683943;32;40122;-77
2022/06/10 14:34:59;;;;;;;4.47;3.03;;;;;;;31.83;36.80;99542.09;7683919;32;39176;-76
2022/06/10 14:39:23;;;;;;;5.03;3.30;;;;;;;31.04;37.10;99537.34;7683075;32;38057;-76
2022/06/10 14:44:01;;;;;;;5.97;3.58;;;;;;;30.88;37.46;99534.28;7683967;32;39410;-75
2022/06/10 14:48:32;;;;;;;4.75;3.45;;;;;;;30.31;38.67;99529.91;7684337;32;39707;-75
2022/06/10 14:52:52;;;;;;;8.90;3.20;;;;;;;30.73;38.16;99541.25;7683309;32;37928;-76
2022/06/10 14:57:17;;;;;;;6.35;3.30;;;;;;;30.95;37.86;99548.31;7683708;32;37821;-75
2022/06/10 15:01:34;;;;;;;4.32;3.00;;;;;;;30.91;37.58;99555.97;7682240;32;40295;-75
2022/06/10 15:06:17;;;;;;;5.30;2.80;;;;;;;31.54;37.03;99557.78;7683071;32;40069;-75
2022/06/10 15:10:36;;;;;;;5.60;3.22;;;;;;;32.12;36.28;99558.66;7683437;32;37647;-76
2022/06/10 15:14:58;;;;;;;7.22;3.17;;;;;;;30.88;37.26;99568.84;7681938;32;37029;-75
2022/06/10 15:19:15;;;;;;;8.13;3.77;;;;;;;30.24;38.31;99558.87;7683595;32;39260;-76
2022/06/10 15:23:31;;;;;;;6.87;3.25;;;;;;;29.81;38.53;99577.97;7682690;32;40804;-75
2022/06/10 15:27:48;;;;;;;4.70;3.28;;;;;;;29.16;39.64;99578.91;7682859;32;37611;-75
2022/06/10 15:32:16;;;;;;;11.07;3.58;;;;;;;29.16;40.16;99590.16;7682778;32;37882;-75
2022/06/10 15:41:08;;;;;;;7.07;3.92;;;;;;;28.37;42.28;99626.53;7683143;32;39654;-76
2022/06/10 15:45:24;;;;;;;4.05;3.33;;;;;;;28.56;41.74;99645.03;7682316;32;38735;-76
2022/06/10 15:49:42;;;;;;;5.15;3.25;;;;;;;28.72;40.57;99653.06;7682800;32;37867;-76
2022/06/10 15:54:01;;;;;;;4.85;3.80;;;;;;;28.76;41.65;99667.09;7681851;32;39281;-77
2022/06/10 15:58:19;;;;;;;11.45;3.50;;;;;;;28.99;40.87;99672.31;7680990;32;40580;-75
2022/06/10 16:02:36;;;;;;;10.43;3.87;;;;;;;28.83;39.90;99655.88;7680956;32;36896;-76
2022/06/10 16:06:53;;;;;;;6.45;3.72;;;;;;;28.82;40.48;99657.06;7681984;32;37429;-75
2022/06/10 16:11:16;;;;;;;11.12;3.70;;;;;;;28.81;41.11;99650.66;7681211;32;40089;-77
2022/06/10 16:15:37;;;;;;;;;;;;;;;29.05;40.34;99639.84;7682906;32;39953;-76
2022/06/10 16:19:54;;;;;;;8.85;4.25;;;;;;;28.89;40.18;99650.66;7685889;32;38239;-75
2022/06/10 16:24:11;;;;;;;10.18;4.37;;;;;;;28.91;42.13;99645.47;7684564;32;37799;-76
2022/06/10 16:28:29;;;;;;;7.35;4.40;;;;;;;29.36;39.77;99662.72;7685749;32;39052;-77
2022/06/10 16:32:46;;;;;;;5.65;4.03;;;;;;;30.00;41.68;99663.81;7685779;32;40850;-77
2022/06/10 16:37:03;;;;;;;10.35;4.72;;;;;;;30.23;40.60;99647.22;7684805;32;38617;-75
2022/06/10 16:41:31;;;;;;;9.98;4.62;;;;;;;30.10;43.00;99651.72;7685724;32;37173;-75
2022/06/10 16:45:48;;;;;;;8.73;4.78;;;;;;;29.71;43.93;99659.03;7683757;32;38999;-76
2022/06/10 16:50:05;;;;;;;7.80;4.80;;;;;;;29.19;43.49;99676.34;7685371;32;40894;-76
2022/06/10 16:54:21;;;;;;;7.90;4.53;;;;;;;29.27;44.08;99681.97;7684827;32;38395;-75
2022/06/10 16:58:38;;;;;;;7.40;4.50;;;;;;;28.68;43.93;99674.69;7685255;32;38049;-77
2022/06/10 17:02:57;;;;;;;9.10;5.10;;;;;;;28.60;44.34;99681.50;7685447;32;39435;-76
2022/06/10 17:07:21;;;;;;;10.73;5.30;;;;;;;28.54;45.25;99685.84;7684749;32;40826;-75
2022/06/10 17:11:46;;;;;;;8.75;4.82;;;;;;;28.05;45.72;99693.69;7685104;32;37867;-76
2022/06/10 17:16:33;;;;;;;10.50;5.20;;;;;;;27.75;47.46;99688.28;7684866;32;37167;-75
2022/06/10 17:20:52;;;;;;;6.68;4.53;;;;;;;27.69;46.07;99682.25;7680682;32;39865;-75
2022/06/10 17:25:10;;;;;;;8.50;5.15;;;;;;;27.39;45.61;99674.03;7684734;32;40232;-75
2022/06/10 17:29:39;;;;;;;7.12;5.12;;;;;;;27.26;46.41;99671.53;7684768;32;37860;-75
2022/06/10 17:33:58;;;;;;;8.80;5.43;;;;;;;27.55;45.26;99671.75;7684395;32;37273;-75
2022/06/10 17:38:35;;;;;;;10.23;5.32;;;;;;;27.29;45.77;99670.78;7696139;32;39056;-76
2022/06/10 17:42:52;;;;;;;9.50;5.07;;;;;;;26.83;45.85;99673.97;7683632;32;39602;-76
2022/06/10 17:47:14;;;;;;;8.73;5.40;;;;;;;26.53;46.69;99680.41;7685234;32;38200;-76
2022/06/10 17:51:31;;;;;;;6.72;4.72;;;;;;;25.82;47.35;99681.13;7710632;32;37437;-78
2022/06/10 17:55:47;;;;;;;11.02;5.00;;;;;;;25.45;47.75;99683.75;7708786;32;39015;-78
2022/06/10 18:00:08;;;;;;;7.50;5.07;;;;;;;25.49;48.20;99682.66;7709665;32;39575;-80
2022/06/10 18:04:25;;;;;;;9.38;5.15;;;;;;;25.41;48.32;99683.72;7711168;32;37937;-78
2022/06/10 18:08:41;;;;;;;9.45;5.37;;;;;;;25.32;49.61;99691.56;7709882;32;38237;-78
2022/06/10 18:17:54;;;;;;;9.88;5.25;;;;;;;24.79;50.77;99685.84;7711117;32;39611;-83
2022/06/10 18:22:14;;;;;;;12.57;5.70;;;;;;;24.66;50.58;99699.91;7710004;32;38909;-80
2022/06/10 18:26:44;;;;;;;10.00;5.75;;;;;;;24.49;51.13;99708.72;7706092;32;154654;-80
2022/06/10 18:31:06;;;;;;;9.05;5.40;;;;;;;24.86;50.95;99725.78;7711194;32;39337;-80
2022/06/10 18:35:25;;;;;;;7.85;5.18;;;;;;;24.69;50.59;99729.84;7710587;32;40897;-78
2022/06/10 18:40:04;;;;;;;11.57;5.22;;;;;;;24.78;49.78;99742.75;7709033;32;38329;-80
2022/06/10 18:44:20;;;;;;;8.98;5.10;;;;;;;24.53;50.96;99734.69;7710981;32;37891;-80
2022/06/10 18:48:45;;;;;;;11.63;5.30;;;;;;;24.50;51.27;99733.44;7710945;32;40138;-80
2022/06/10 18:53:10;;;;;;;8.73;5.35;;;;;;;24.68;50.70;99750.53;7710709;32;39967;-80
2022/06/10 18:57:27;;;;;;;13.27;5.20;;;;;;;24.46;51.27;99756.84;7710508;32;37881;-80
2022/06/10 19:01:44;;;;;;;9.38;5.25;;;;;;;24.65;52.25;99764.41;7710588;32;38894;-79
2022/06/10 19:06:00;;;;;;;8.60;5.30;;;;;;;24.69;51.13;99776.44;7710239;32;39297;-79
2022/06/10 19:10:20;;;;;;;8.60;5.53;;;;;;;24.63;51.52;99789.84;7721554;32;40657;-79
2022/06/10 19:14:37;;;;;;;10.88;5.97;;;;;;;24.54;51.11;99798.44;7710220;32;38713;-76
2022/06/10 19:18:58;;;;;;;11.05;5.18;;;;;;;24.46;52.07;99807.00;7710127;32;37229;-75
2022/06/10 19:23:21;;;;;;;8.52;5.37;;;;;;;24.26;51.38;99814.50;7709131;32;39334;-74
2022/06/10 19:27:41;;;;;;;10.73;6.10;;;;;;;24.23;51.24;99826.37;7710072;32;40503;-74
2022/06/10 19:32:06;;;;;;;11.23;6.20;;;;;;;24.30;50.96;99826.53;7709607;32;39142;-75
2022/06/10 19:36:33;;;;;;;10.93;6.12;;;;;;;23.65;52.18;99826.97;7708123;32;37169;-74
2022/06/10 19:40:51;;;;;;;8.95;5.50;;;;;;;23.83;51.56;99844.12;7708874;32;40227;-74
2022/06/10 19:45:11;;;;;;;9.30;5.43;;;;;;;23.56;51.53;99854.94;7709800;32;39920;-73
2022/06/10 19:49:28;;;;;;;10.07;5.03;;;;;;;23.81;50.18;99841.69;7709684;32;38053;-74
2022/06/10 19:53:45;;;;;;;8.27;5.50;;;;;;;23.74;50.40;99860.97;7712439;32;37896;-73
2022/06/10 19:58:06;;;;;;;8.05;5.32;;;;;;;23.63;53.14;99861.50;7712725;32;39808;-74
2022/06/10 20:02:23;;;;;;;11.77;5.60;;;;;;;23.61;53.69;99863.84;7712409;32;39941;-75
2022/06/10 20:06:39;;;;;;;10.90;5.43;;;;;;;23.65;51.83;99871.50;7712531;32;38048;-74
2022/06/10 20:10:56;;;;;;;9.27;5.20;;;;;;;23.62;50.97;99865.44;7712904;32;36861;-74
2022/06/10 20:15:12;;;;;;;8.07;5.18;;;;;;;23.56;52.56;99878.03;7712772;32;39308;-75
2022/06/10 20:19:35;;;;;;;9.77;5.22;;;;;;;23.63;50.65;99874.62;7712835;32;39775;-75
2022/06/10 20:23:54;;;;;;;8.35;4.95;;;;;;;23.71;50.16;99883.97;7711855;32;38740;-74
2022/06/10 20:28:13;;;;;;;7.57;4.65;;;;;;;23.62;50.90;99882.16;7712786;32;38079;-74
2022/06/10 20:32:31;;;;;;;9.75;5.37;;;;;;;23.54;50.68;99893.44;7712629;32;39219;-75
2022/06/10 20:36:47;;;;;;;11.55;5.50;;;;;;;23.43;51.60;99884.81;7712410;32;39923;-74
2022/06/10 20:41:04;;;;;;;8.23;5.12;;;;;;;23.43;50.72;99895.94;7712257;32;38179;-74
2022/06/10 20:45:21;;;;;;;8.27;4.75;;;;;;;23.30;52.34;99897.16;7712496;32;37884;-74
2022/06/10 20:49:40;;;;;;;9.27;5.43;;;;;;;23.32;52.84;99892.06;7712133;32;40123;-74
2022/06/10 20:53:57;;;;;;;7.28;5.00;;;;;;;23.31;52.86;99894.03;7711939;32;40890;-73
2022/06/10 20:58:24;;;;;;;10.60;5.87;;;;;;;23.06;54.17;99904.47;7712226;32;37972;-74